Time;durP1;ratioP1;P1;durP2;ratioP2;P2;SDS_P1;SDS_P2;PMS_P1;PMS_P2;Temp;Humidity;BMP_temperature;BMP_pressure;BME280_temperature;BME280_humidity;BME280_pressure;Samples;Min_cycle;Max_cycle;Signal;HPM_P1;HPM_P2
2023/05/05 00:01:06;;;;;;;2.53;1.30;;;20.40;64.30;;;;;;2622422;52;21399;-70
2023/05/05 00:03:35;;;;;;;3.00;1.45;;;20.40;64.30;;;;;;2370151;53;21428;-69
2023/05/05 00:06:02;;;;;;;2.50;1.45;;;20.40;64.30;;;;;;2370046;53;20966;-70
2023/05/05 00:08:32;;;;;;;3.70;1.60;;;20.30;64.20;;;;;;2370344;53;21001;-68
2023/05/05 00:10:59;;;;;;;3.12;1.70;;;20.30;64.30;;;;;;2370280;53;20942;-70
2023/05/05 00:13:25;;;;;;;2.90;1.70;;;20.20;64.30;;;;;;2623415;52;20978;-69
2023/05/05 00:15:52;;;;;;;2.85;1.65;;;20.20;64.40;;;;;;2372003;53;21455;-69
2023/05/05 00:18:18;;;;;;;3.12;1.73;;;20.20;64.50;;;;;;2623100;52;21029;-69
2023/05/05 00:20:47;;;;;;;3.50;1.87;;;20.10;64.60;;;;;;2370233;53;21002;-68
2023/05/05 00:23:17;;;;;;;3.65;1.92;;;20.10;64.70;;;;;;2370412;53;21001;-69
2023/05/05 00:25:43;;;;;;;3.28;1.73;;;20.10;64.70;;;;;;2369992;53;21379;-69
2023/05/05 00:28:16;;;;;;;2.83;1.77;;;20.10;64.90;;;;;;2370940;53;20970;-69
2023/05/05 00:30:42;;;;;;;3.70;2.35;;;20.10;65.00;;;;;;2623670;52;20946;-69
2023/05/05 00:33:08;;;;;;;3.30;2.10;;;20.00;64.90;;;;;;2369804;53;21013;-69
2023/05/05 00:35:36;;;;;;;3.15;1.83;;;20.00;64.90;;;;;;2620233;52;21010;-68
2023/05/05 00:38:03;;;;;;;3.10;1.90;;;20.00;65.00;;;;;;2370123;53;20966;-69
2023/05/05 00:40:30;;;;;;;3.12;1.83;;;20.00;65.10;;;;;;2370645;53;21775;-71
2023/05/05 00:42:58;;;;;;;3.15;1.87;;;20.00;65.20;;;;;;2373000;53;21405;-70
2023/05/05 00:45:24;;;;;;;2.95;1.55;;;20.00;65.30;;;;;;2370767;53;20977;-70
2023/05/05 00:47:54;;;;;;;4.62;1.90;;;20.00;65.30;;;;;;2622415;52;21031;-69
2023/05/05 00:50:24;;;;;;;4.20;1.62;;;20.00;65.20;;;;;;2369495;53;20985;-70
2023/05/05 00:52:53;;;;;;;3.05;1.90;;;20.00;65.20;;;;;;2621170;52;20974;-72
2023/05/05 00:55:20;;;;;;;3.40;1.98;;;20.00;65.20;;;;;;2621743;52;20977;-70
2023/05/05 00:57:51;;;;;;;3.45;2.40;;;20.00;66.00;;;;;;2369645;53;20922;-71
2023/05/05 01:00:17;;;;;;;3.22;1.83;;;20.00;65.20;;;;;;2623392;52;20966;-70
2023/05/05 01:02:43;;;;;;;3.65;2.40;;;19.90;65.30;;;;;;2623782;52;20945;-69
2023/05/05 01:05:10;;;;;;;5.53;2.33;;;19.90;65.40;;;;;;2621970;52;20930;-71
2023/05/05 01:09:28;;;;;;;4.43;2.03;;;19.90;65.40;;;;;;2621946;52;20937;-69
2023/05/05 01:14:12;;;;;;;3.47;2.15;;;19.90;64.10;;;;;;2373433;52;20963;-72
2023/05/05 01:16:40;;;;;;;;;;;19.90;64.30;;;;;;2374315;53;21431;-71
2023/05/05 01:19:24;;;;;;;2.78;1.48;;;19.90;64.50;;;;;;2370383;53;20062;-71
2023/05/05 01:21:55;;;;;;;2.90;1.52;;;19.90;65.40;;;;;;2369758;53;22138;-69
2023/05/05 01:27:59;;;;;;;3.55;1.90;;;19.80;65.50;;;;;;2621715;52;20934;-69
2023/05/05 01:32:03;;;;;;;2.40;1.27;;;19.80;64.60;;;;;;2622294;52;20910;-69
2023/05/05 01:34:35;;;;;;;2.28;1.20;;;19.80;64.60;;;;;;2373807;53;22241;-69
2023/05/05 01:37:23;;;;;;;2.60;1.30;;;19.70;65.50;;;;;;2370119;53;21775;-69
2023/05/05 01:39:58;;;;;;;2.40;1.37;;;19.70;64.80;;;;;;2370094;53;21851;-69
2023/05/05 01:42:24;;;;;;;3.20;1.60;;;19.70;65.80;;;;;;2373976;53;20944;-73
2023/05/05 01:44:51;;;;;;;2.60;1.35;;;19.60;65.80;;;;;;2622684;52;20950;-71
2023/05/05 01:47:20;;;;;;;3.03;1.70;;;19.60;65.90;;;;;;2370267;53;20986;-74
2023/05/05 01:49:48;;;;;;;2.60;1.50;;;19.60;66.00;;;;;;2622339;52;21257;-68
2023/05/05 01:52:14;;;;;;;4.50;1.70;;;19.60;66.10;;;;;;2622419;52;20941;-69
2023/05/05 01:54:41;;;;;;;3.20;1.87;;;19.50;66.10;;;;;;2622594;52;20975;-70
2023/05/05 01:57:08;;;;;;;2.70;1.60;;;19.60;66.10;;;;;;2369733;53;21920;-68
2023/05/05 01:59:35;;;;;;;2.90;1.83;;;19.50;66.10;;;;;;2369971;53;21034;-68
2023/05/05 02:02:02;;;;;;;3.12;1.70;;;19.60;66.30;;;;;;2621592;52;21808;-68
2023/05/05 02:04:29;;;;;;;2.53;1.45;;;19.60;66.30;;;;;;2370797;53;21234;-68
2023/05/05 02:06:56;;;;;;;2.97;1.52;;;19.60;66.30;;;;;;2622460;52;21014;-69
2023/05/05 02:09:24;;;;;;;6.12;1.92;;;19.60;66.30;;;;;;2370834;53;21044;-69
2023/05/05 02:11:50;;;;;;;3.95;1.58;;;19.60;66.20;;;;;;2374285;53;20922;-68
2023/05/05 02:14:18;;;;;;;3.15;1.55;;;19.50;66.10;;;;;;2369469;53;21033;-70
2023/05/05 02:16:47;;;;;;;2.42;1.20;;;19.60;66.20;;;;;;2622315;52;21001;-68
2023/05/05 02:19:17;;;;;;;2.60;1.35;;;19.60;66.20;;;;;;2372604;53;21006;-69
2023/05/05 02:21:43;;;;;;;2.53;1.30;;;19.60;66.30;;;;;;2622162;52;20958;-70
2023/05/05 02:24:10;;;;;;;2.75;1.30;;;19.50;66.30;;;;;;2370302;53;21682;-69
2023/05/05 02:26:38;;;;;;;2.35;1.20;;;19.60;66.40;;;;;;2373682;53;21799;-71
2023/05/05 02:29:06;;;;;;;3.55;1.20;;;19.60;66.30;;;;;;2368974;53;21440;-68
2023/05/05 02:31:37;;;;;;;2.55;1.30;;;19.60;66.30;;;;;;2622735;52;20942;-71
2023/05/05 02:34:03;;;;;;;9.45;1.80;;;19.60;66.30;;;;;;2622127;52;21849;-68
2023/05/05 02:36:31;;;;;;;2.80;1.40;;;19.70;66.50;;;;;;2623204;52;21802;-69
2023/05/05 02:39:00;;;;;;;3.15;1.30;;;19.70;66.40;;;;;;2369978;53;21033;-69
2023/05/05 02:41:27;;;;;;;3.53;1.33;;;19.70;66.30;;;;;;2369733;53;21017;-68
2023/05/05 02:43:56;;;;;;;2.40;1.12;;;19.80;66.40;;;;;;2369916;53;21053;-70
2023/05/05 02:46:22;;;;;;;2.08;1.10;;;19.70;66.30;;;;;;2622861;52;20934;-69
2023/05/05 02:48:48;;;;;;;2.45;1.23;;;19.70;66.30;;;;;;2367645;53;20969;-68
2023/05/05 02:51:15;;;;;;;2.85;1.40;;;19.70;66.30;;;;;;2622482;52;20989;-69
2023/05/05 02:53:41;;;;;;;3.50;1.08;;;19.80;66.40;;;;;;2370759;53;20989;-68
2023/05/05 02:57:47;;;;;;;4.00;1.60;;;19.80;66.30;;;;;;2369991;53;21250;-71
2023/05/05 03:00:24;;;;;;;2.80;1.33;;;19.90;65.00;;;;;;2350306;52;1821206;-69
2023/05/05 03:04:36;;;;;;;2.58;1.40;;;19.80;66.00;;;;;;2622854;52;20946;-71
2023/05/05 03:07:11;;;;;;;2.17;1.02;;;19.90;65.90;;;;;;2369877;53;21491;-70
2023/05/05 03:09:40;;;;;;;2.50;1.10;;;19.90;66.10;;;;;;2623233;52;20962;-69
2023/05/05 03:12:08;;;;;;;2.53;0.95;;;19.80;66.00;;;;;;2369740;53;20890;-69
2023/05/05 03:14:40;;;;;;;3.15;1.05;;;19.80;66.00;;;;;;2370863;53;20970;-69
2023/05/05 03:17:09;;;;;;;2.17;1.00;;;19.90;65.90;;;;;;2623093;52;20918;-68
2023/05/05 03:19:36;;;;;;;2.70;1.25;;;19.80;66.00;;;;;;2369948;53;20949;-68
2023/05/05 03:22:03;;;;;;;2.70;1.40;;;19.80;66.00;;;;;;2622272;52;20930;-67
2023/05/05 03:24:30;;;;;;;2.60;1.00;;;19.80;66.00;;;;;;2369782;53;21308;-69
2023/05/05 03:26:56;;;;;;;2.40;1.08;;;19.80;66.00;;;;;;2622143;52;20973;-70
2023/05/05 03:29:22;;;;;;;3.08;1.37;;;19.80;66.00;;;;;;2369893;53;20942;-69
2023/05/05 03:31:49;;;;;;;2.87;1.30;;;19.70;65.90;;;;;;2373669;53;20924;-68
2023/05/05 03:34:15;;;;;;;3.15;1.50;;;19.70;65.80;;;;;;2370028;53;20926;-69
2023/05/05 03:36:41;;;;;;;2.97;1.45;;;19.70;65.90;;;;;;2623724;52;21033;-71
2023/05/05 03:39:07;;;;;;;3.00;1.30;;;19.70;65.90;;;;;;2370046;53;20907;-69
2023/05/05 03:41:34;;;;;;;4.22;1.75;;;19.70;66.30;;;;;;2622285;52;21863;-69
2023/05/05 03:44:01;;;;;;;2.95;1.40;;;19.70;66.00;;;;;;2369807;53;20942;-69
2023/05/05 03:46:27;;;;;;;2.90;1.40;;;19.70;66.00;;;;;;2370305;53;21543;-70
2023/05/05 03:48:55;;;;;;;1.92;1.10;;;19.70;66.00;;;;;;2622626;52;22125;-72
2023/05/05 03:51:23;;;;;;;4.15;1.33;;;19.70;66.00;;;;;;2623245;52;21266;-72
2023/05/05 03:53:50;;;;;;;2.00;1.00;;;19.70;66.10;;;;;;2373778;53;21003;-70
2023/05/05 03:56:17;;;;;;;2.33;1.10;;;19.70;66.10;;;;;;2370905;53;20990;-71
2023/05/05 03:58:43;;;;;;;2.33;1.12;;;19.70;66.10;;;;;;2370465;53;20958;-71
2023/05/05 04:01:10;;;;;;;2.37;1.12;;;19.70;66.20;;;;;;2623055;52;20970;-72
2023/05/05 04:03:38;;;;;;;1.73;0.82;;;19.70;66.30;;;;;;2373351;53;20979;-73
2023/05/05 04:06:05;;;;;;;2.70;1.50;;;19.70;66.30;;;;;;2622202;52;20917;-73
2023/05/05 04:08:31;;;;;;;2.62;0.98;;;19.70;66.30;;;;;;2623248;52;20946;-72
2023/05/05 04:11:01;;;;;;;1.80;0.80;;;19.70;66.30;;;;;;2622775;52;21002;-71
2023/05/05 04:13:28;;;;;;;2.33;0.98;;;19.70;66.30;;;;;;2370415;53;20957;-72
2023/05/05 04:15:54;;;;;;;3.03;1.05;;;19.70;66.30;;;;;;2370330;53;20942;-72
2023/05/05 04:18:21;;;;;;;1.95;1.02;;;19.70;66.40;;;;;;2369983;53;20990;-72
2023/05/05 04:20:47;;;;;;;2.60;1.40;;;19.70;66.30;;;;;;2623498;52;21692;-72
2023/05/05 04:23:14;;;;;;;2.90;1.33;;;19.70;66.30;;;;;;2372927;53;21003;-72
2023/05/05 04:25:40;;;;;;;2.75;1.30;;;19.80;66.50;;;;;;2623851;52;20974;-72
2023/05/05 04:28:07;;;;;;;2.47;1.30;;;19.80;66.60;;;;;;2375007;53;21808;-73
2023/05/05 04:30:33;;;;;;;2.40;1.30;;;19.70;66.60;;;;;;2622390;52;20930;-72
2023/05/05 04:32:59;;;;;;;2.70;1.30;;;19.80;66.80;;;;;;2370875;53;21368;-72
2023/05/05 04:35:26;;;;;;;3.55;1.20;;;19.70;66.70;;;;;;2624213;52;20930;-74
2023/05/05 04:37:53;;;;;;;2.30;1.10;;;19.80;66.80;;;;;;2371083;53;20933;-74
2023/05/05 04:40:20;;;;;;;2.62;1.33;;;19.80;66.90;;;;;;2370466;53;20926;-73
2023/05/05 04:42:46;;;;;;;2.90;1.40;;;19.80;66.90;;;;;;2370934;53;21731;-72
2023/05/05 04:45:15;;;;;;;2.83;1.52;;;19.80;67.00;;;;;;2622994;52;21655;-72
2023/05/05 04:47:41;;;;;;;4.12;1.40;;;19.80;66.90;;;;;;2371722;53;20970;-74
2023/05/05 04:50:10;;;;;;;2.30;1.10;;;19.80;66.90;;;;;;2623424;52;20970;-73
2023/05/05 04:52:36;;;;;;;3.12;1.30;;;19.90;67.00;;;;;;2623676;52;20938;-69
2023/05/05 04:55:04;;;;;;;3.47;1.45;;;19.90;67.10;;;;;;2622898;52;20934;-72
2023/05/05 04:57:31;;;;;;;3.90;1.80;;;19.90;67.10;;;;;;2373984;53;21410;-73
2023/05/05 04:59:59;;;;;;;3.78;1.90;;;19.90;67.10;;;;;;2370832;53;20977;-73
2023/05/05 05:02:26;;;;;;;3.12;1.70;;;20.00;67.30;;;;;;2622962;52;21058;-72
2023/05/05 05:04:52;;;;;;;3.65;2.00;;;19.90;67.20;;;;;;2623480;52;21017;-73
2023/05/05 05:07:18;;;;;;;3.80;2.10;;;19.90;67.30;;;;;;2623056;52;20986;-72
2023/05/05 05:09:44;;;;;;;3.75;2.22;;;19.90;67.30;;;;;;2372149;53;20974;-74
2023/05/05 05:12:11;;;;;;;5.15;2.08;;;19.90;67.40;;;;;;2371191;53;21816;-72
2023/05/05 05:14:37;;;;;;;3.30;1.80;;;19.90;67.40;;;;;;2624179;52;20962;-72
2023/05/05 05:17:04;;;;;;;9.30;1.85;;;19.90;67.50;;;;;;2371076;53;21446;-73
2023/05/05 05:19:31;;;;;;;4.22;1.83;;;19.90;67.50;;;;;;2623525;52;20962;-73
2023/05/05 05:21:57;;;;;;;2.90;1.58;;;19.90;67.50;;;;;;2623255;52;20922;-75
2023/05/05 05:24:24;;;;;;;4.03;1.80;;;19.90;67.60;;;;;;2623541;52;20980;-73
2023/05/05 05:26:50;;;;;;;5.18;1.80;;;19.90;68.50;;;;;;2370938;53;20929;-72
2023/05/05 05:29:17;;;;;;;3.35;1.60;;;20.00;67.90;;;;;;2623297;52;20985;-73
2023/05/05 05:31:43;;;;;;;3.50;1.65;;;19.90;67.90;;;;;;2370773;53;20922;-71
2023/05/05 05:34:12;;;;;;;3.22;1.75;;;19.90;68.00;;;;;;2370143;53;20973;-71
2023/05/05 05:36:39;;;;;;;2.70;1.37;;;20.00;68.00;;;;;;2624224;52;20950;-74
2023/05/05 05:39:05;;;;;;;2.83;1.50;;;20.00;68.30;;;;;;2623638;52;20978;-72
2023/05/05 05:41:31;;;;;;;3.03;1.75;;;20.00;68.30;;;;;;2370604;53;20993;-71
2023/05/05 05:43:58;;;;;;;3.45;1.87;;;20.00;69.10;;;;;;2374545;53;21818;-72
2023/05/05 05:46:24;;;;;;;3.72;2.03;;;20.00;68.40;;;;;;2622236;52;21895;-71
2023/05/05 05:48:51;;;;;;;3.83;2.28;;;20.10;68.50;;;;;;2623352;52;20906;-72
2023/05/05 05:51:17;;;;;;;4.45;2.40;;;20.10;68.50;;;;;;2370206;53;20934;-73
2023/05/05 05:53:47;;;;;;;6.20;3.65;;;20.10;68.60;;;;;;2623948;52;20934;-71
2023/05/05 05:56:13;;;;;;;6.28;3.67;;;20.20;68.70;;;;;;2371403;53;20941;-73
2023/05/05 05:58:41;;;;;;;6.12;3.70;;;20.20;68.70;;;;;;2623559;52;20986;-72
2023/05/05 06:01:10;;;;;;;26.98;17.65;;;20.20;68.70;;;;;;2370807;53;20965;-73
2023/05/05 06:03:36;;;;;;;17.35;12.60;;;20.30;68.70;;;;;;2371082;53;20975;-72
2023/05/05 06:06:06;;;;;;;13.35;8.05;;;20.30;68.80;;;;;;2623611;52;20950;-71
2023/05/05 06:08:32;;;;;;;9.35;6.32;;;20.30;68.70;;;;;;2370934;53;20970;-75
2023/05/05 06:11:00;;;;;;;7.05;4.30;;;20.30;68.70;;;;;;2623143;52;20959;-74
2023/05/05 06:13:27;;;;;;;9.05;4.37;;;20.40;68.80;;;;;;2370438;53;21722;-71
2023/05/05 06:15:53;;;;;;;5.87;3.80;;;20.40;68.80;;;;;;2370479;53;21878;-72
2023/05/05 06:18:22;;;;;;;5.95;3.40;;;20.50;68.90;;;;;;2622206;52;20964;-74
2023/05/05 06:20:49;;;;;;;4.95;2.78;;;20.40;68.80;;;;;;2622467;52;20972;-73
2023/05/05 06:23:16;;;;;;;4.07;2.30;;;20.50;68.90;;;;;;2370740;53;20994;-74
2023/05/05 06:25:42;;;;;;;3.90;2.30;;;20.50;68.90;;;;;;2371041;53;21634;-72
2023/05/05 06:28:08;;;;;;;5.32;3.00;;;20.50;68.90;;;;;;2370965;53;20910;-72
2023/05/05 06:30:35;;;;;;;5.05;2.83;;;20.60;69.00;;;;;;2622965;52;21718;-72
2023/05/05 06:33:01;;;;;;;4.20;2.42;;;20.60;69.00;;;;;;2623482;52;20918;-72
2023/05/05 06:35:30;;;;;;;4.40;2.10;;;20.60;69.10;;;;;;2370545;53;20973;-72
2023/05/05 06:37:57;;;;;;;3.67;1.70;;;20.70;69.00;;;;;;2371465;53;21479;-72
2023/05/05 06:40:23;;;;;;;2.50;1.12;;;20.70;69.10;;;;;;2623066;52;21424;-73
2023/05/05 06:42:49;;;;;;;2.60;1.30;;;20.70;69.20;;;;;;2623610;52;20958;-73
2023/05/05 06:45:17;;;;;;;3.30;1.55;;;20.80;69.30;;;;;;2622191;52;21286;-73
2023/05/05 06:47:43;;;;;;;3.35;1.70;;;20.80;69.30;;;;;;2623130;52;20979;-71
2023/05/05 06:50:10;;;;;;;4.00;2.25;;;20.80;69.20;;;;;;2623602;52;20939;-71
2023/05/05 06:52:36;;;;;;;3.15;1.92;;;20.80;69.10;;;;;;2370985;53;20930;-72
2023/05/05 06:55:03;;;;;;;3.25;2.03;;;20.90;69.00;;;;;;2370912;53;22216;-72
2023/05/05 06:57:29;;;;;;;3.53;2.00;;;20.90;69.00;;;;;;2370314;53;20937;-71
2023/05/05 06:59:56;;;;;;;2.97;1.80;;;21.00;69.20;;;;;;2371273;53;20970;-72
2023/05/05 07:02:23;;;;;;;3.70;2.03;;;20.90;69.00;;;;;;2623457;52;21002;-73
2023/05/05 07:04:54;;;;;;;3.92;2.15;;;21.00;69.00;;;;;;2623982;52;21433;-68
2023/05/05 07:07:21;;;;;;;5.00;2.30;;;21.10;69.10;;;;;;2370793;53;20930;-72
2023/05/05 07:09:48;;;;;;;3.65;1.90;;;21.10;69.00;;;;;;2624209;52;20970;-73
2023/05/05 07:12:15;;;;;;;3.50;2.40;;;21.10;69.00;;;;;;2373610;53;21001;-71
2023/05/05 07:14:42;;;;;;;4.93;2.75;;;21.20;69.10;;;;;;2623362;52;20972;-73
2023/05/05 07:17:11;;;;;;;3.85;2.53;;;21.20;69.00;;;;;;2623582;52;20966;-72
2023/05/05 07:19:37;;;;;;;3.67;2.20;;;21.20;68.90;;;;;;2623369;52;20923;-71
2023/05/05 07:22:03;;;;;;;5.43;2.12;;;21.30;69.00;;;;;;2623612;52;20915;-72
2023/05/05 07:24:31;;;;;;;4.85;3.22;;;21.30;69.00;;;;;;2623303;52;20954;-72
2023/05/05 07:26:58;;;;;;;16.45;9.02;;;21.30;68.90;;;;;;2370678;53;20985;-72
2023/05/05 07:29:24;;;;;;;14.75;8.48;;;21.40;68.90;;;;;;2623325;52;21363;-74
2023/05/05 07:31:51;;;;;;;14.45;8.70;;;21.40;68.80;;;;;;2624326;52;20998;-71
2023/05/05 07:34:17;;;;;;;10.82;6.75;;;21.40;68.70;;;;;;2623716;52;20942;-73
2023/05/05 07:36:46;;;;;;;9.60;5.10;;;21.40;68.70;;;;;;2623346;52;21728;-70
2023/05/05 07:39:14;;;;;;;5.45;3.50;;;21.40;68.60;;;;;;2623280;52;20984;-71
2023/05/05 07:41:41;;;;;;;5.45;3.60;;;21.50;68.80;;;;;;2622456;52;21813;-72
2023/05/05 07:44:08;;;;;;;6.82;2.92;;;21.50;68.80;;;;;;2623619;52;20949;-70
2023/05/05 07:46:35;;;;;;;4.87;2.70;;;21.50;68.80;;;;;;2620861;52;21017;-71
2023/05/05 07:49:01;;;;;;;4.60;2.47;;;21.50;68.90;;;;;;2373592;53;21451;-71
2023/05/05 07:51:28;;;;;;;4.47;2.50;;;21.60;69.10;;;;;;2369909;53;20973;-72
2023/05/05 07:53:54;;;;;;;5.35;2.20;;;21.60;69.00;;;;;;2373390;52;20987;-70
2023/05/05 07:56:23;;;;;;;4.30;2.10;;;21.60;69.00;;;;;;2370610;53;21761;-72
2023/05/05 07:58:49;;;;;;;3.95;1.80;;;21.70;69.10;;;;;;2623677;52;20946;-71
2023/05/05 08:01:16;;;;;;;5.35;2.35;;;21.70;69.00;;;;;;2370519;53;21013;-71
2023/05/05 08:03:42;;;;;;;4.78;2.58;;;21.70;69.00;;;;;;2374839;53;21425;-73
2023/05/05 08:06:14;;;;;;;3.60;1.83;;;21.80;68.90;;;;;;2623088;52;20926;-70
2023/05/05 08:08:40;;;;;;;4.05;2.28;;;21.80;68.60;;;;;;2621943;52;21466;-72
2023/05/05 08:11:09;;;;;;;2.97;2.00;;;21.80;68.70;;;;;;2374350;53;21027;-71
2023/05/05 08:13:37;;;;;;;4.28;2.42;;;21.80;68.70;;;;;;2370447;53;20934;-70
2023/05/05 08:16:05;;;;;;;3.22;1.95;;;21.80;68.50;;;;;;2623287;52;20997;-70
2023/05/05 08:18:33;;;;;;;3.42;2.00;;;21.80;68.30;;;;;;2623128;52;20942;-70
2023/05/05 08:20:59;;;;;;;4.65;2.20;;;21.80;68.30;;;;;;2623599;52;21000;-71
2023/05/05 08:23:25;;;;;;;5.00;2.55;;;21.80;68.40;;;;;;2373727;53;20927;-70
2023/05/05 08:25:52;;;;;;;3.22;2.28;;;21.80;68.60;;;;;;2370503;53;21001;-72
2023/05/05 08:28:18;;;;;;;3.70;2.25;;;21.80;68.80;;;;;;2370544;53;20894;-70
2023/05/05 08:30:45;;;;;;;4.28;1.95;;;21.80;68.80;;;;;;2370598;53;21022;-70
2023/05/05 08:33:11;;;;;;;4.35;2.08;;;21.90;69.00;;;;;;2370911;53;21001;-70
2023/05/05 08:35:37;;;;;;;4.47;2.50;;;21.90;69.10;;;;;;2370954;53;20926;-71
2023/05/05 08:38:03;;;;;;;4.78;2.10;;;22.00;69.30;;;;;;2624104;52;21779;-71
2023/05/05 08:40:36;;;;;;;3.33;1.77;;;22.00;69.40;;;;;;2370550;53;21505;-70
2023/05/05 08:43:03;;;;;;;3.90;2.20;;;22.10;69.40;;;;;;2624289;52;21014;-70
2023/05/05 08:45:30;;;;;;;4.85;2.42;;;22.10;69.60;;;;;;2371751;53;20993;-71
2023/05/05 08:48:03;;;;;;;4.55;2.33;;;22.20;69.60;;;;;;2623531;52;20926;-70
2023/05/05 08:50:30;;;;;;;3.95;2.40;;;22.30;69.70;;;;;;2370867;53;21021;-71
2023/05/05 08:53:47;;;;;;;4.15;2.17;;;22.40;69.80;;;;;;2623752;52;20929;-71
2023/05/05 08:56:14;;;;;;;3.33;2.17;;;22.50;69.00;;;;;;2624360;52;20919;-73
2023/05/05 08:58:42;;;;;;;3.60;1.90;;;22.40;69.90;;;;;;2370609;53;20921;-72
2023/05/05 09:01:09;;;;;;;4.50;2.37;;;22.60;70.10;;;;;;2623685;52;21005;-73
2023/05/05 09:03:36;;;;;;;3.42;1.95;;;22.70;70.10;;;;;;2622708;52;21096;-71
2023/05/05 09:06:02;;;;;;;3.53;1.60;;;22.70;70.20;;;;;;2370964;53;21411;-70
2023/05/05 09:08:29;;;;;;;3.70;1.90;;;22.80;70.50;;;;;;2623361;52;20934;-71
2023/05/05 09:10:57;;;;;;;4.00;2.00;;;22.90;70.60;;;;;;2623523;52;20961;-72
2023/05/05 09:13:24;;;;;;;4.20;1.85;;;23.00;70.40;;;;;;2370847;53;20906;-72
2023/05/05 09:15:50;;;;;;;3.30;1.98;;;23.10;70.40;;;;;;2371477;53;20942;-71
2023/05/05 09:18:17;;;;;;;4.55;2.15;;;23.20;70.40;;;;;;2623649;52;20946;-71
2023/05/05 09:20:43;;;;;;;4.07;1.92;;;23.30;70.40;;;;;;2370517;53;21328;-71
2023/05/05 09:23:14;;;;;;;3.75;1.95;;;23.40;70.60;;;;;;2370696;53;21034;-71
2023/05/05 09:25:44;;;;;;;3.72;1.90;;;23.50;70.60;;;;;;2623239;52;21430;-71
2023/05/05 09:28:15;;;;;;;3.40;1.90;;;23.60;70.30;;;;;;2373831;53;20916;-73
2023/05/05 09:30:46;;;;;;;4.25;1.80;;;23.70;70.30;;;;;;2373758;53;21883;-70
2023/05/05 09:33:12;;;;;;;3.22;1.80;;;23.80;70.10;;;;;;2623621;52;20917;-72
2023/05/05 09:35:52;;;;;;;3.35;1.83;;;23.90;70.00;;;;;;2622926;52;20930;-71
2023/05/05 09:38:21;;;;;;;2.80;1.70;;;24.00;68.90;;;;;;2623630;52;20990;-71
2023/05/05 09:40:49;;;;;;;3.78;1.95;;;24.10;69.80;;;;;;2370599;53;20997;-71
2023/05/05 09:43:16;;;;;;;2.80;1.40;;;24.20;69.60;;;;;;2623598;52;20918;-71
2023/05/05 09:45:43;;;;;;;3.28;1.70;;;24.20;69.40;;;;;;2623021;52;21022;-71
2023/05/05 09:48:31;;;;;;;3.92;1.90;;;24.30;69.40;;;;;;2374694;53;21027;-71
2023/05/05 09:50:58;;;;;;;3.10;1.70;;;24.40;68.20;;;;;;2351096;53;20942;-71
2023/05/05 09:53:24;;;;;;;2.87;1.83;;;24.50;69.60;;;;;;2623300;52;20989;-71
2023/05/05 09:55:55;;;;;;;4.35;2.10;;;24.60;69.50;;;;;;2370945;53;21823;-71
2023/05/05 09:58:28;;;;;;;2.80;1.83;;;24.70;69.30;;;;;;2370513;53;21661;-72
2023/05/05 10:00:57;;;;;;;4.80;1.75;;;24.80;68.80;;;;;;2370557;53;20914;-70
2023/05/05 10:03:25;;;;;;;3.12;1.77;;;24.80;68.90;;;;;;2370608;52;20942;-71
2023/05/05 10:05:55;;;;;;;3.35;1.80;;;24.90;68.80;;;;;;2623098;52;20990;-72
2023/05/05 10:08:27;;;;;;;2.40;1.40;;;25.00;68.50;;;;;;2371490;53;21981;-71
2023/05/05 10:10:55;;;;;;;3.12;1.62;;;25.10;68.40;;;;;;2371012;53;21848;-71
2023/05/05 10:13:22;;;;;;;3.42;1.50;;;25.20;68.50;;;;;;2370670;53;21681;-71
2023/05/05 10:15:50;;;;;;;3.65;1.85;;;25.20;68.10;;;;;;2370889;53;21494;-71
2023/05/05 10:18:26;;;;;;;2.80;1.58;;;25.20;67.80;;;;;;2370844;53;20957;-70
2023/05/05 10:20:57;;;;;;;3.33;1.23;;;25.30;66.70;;;;;;2371244;53;21034;-70
2023/05/05 10:23:26;;;;;;;2.67;1.30;;;25.30;67.10;;;;;;2370696;53;21041;-71
2023/05/05 10:25:57;;;;;;;3.53;1.67;;;25.40;67.60;;;;;;2370758;53;21030;-71
2023/05/05 10:28:30;;;;;;;3.33;1.75;;;25.40;67.30;;;;;;2623752;52;21004;-70
2023/05/05 10:30:58;;;;;;;2.60;1.35;;;25.50;67.30;;;;;;2371360;53;20910;-73
2023/05/05 10:33:33;;;;;;;3.30;1.37;;;25.50;67.50;;;;;;2370648;53;20970;-72
2023/05/05 10:36:01;;;;;;;2.60;1.40;;;25.60;67.10;;;;;;2370900;53;20910;-70
2023/05/05 10:38:28;;;;;;;2.67;1.27;;;25.70;67.30;;;;;;2623867;52;20980;-70
2023/05/05 10:40:58;;;;;;;3.40;1.45;;;25.70;67.70;;;;;;2369802;52;21020;-70
2023/05/05 10:43:24;;;;;;;3.20;1.40;;;25.80;66.70;;;;;;2371218;53;21114;-72
2023/05/05 10:45:52;;;;;;;3.45;1.60;;;25.80;66.50;;;;;;2369161;53;21025;-71
2023/05/05 10:48:23;;;;;;;2.53;1.42;;;25.90;66.30;;;;;;2369314;53;20974;-70
2023/05/05 10:50:52;;;;;;;3.58;1.40;;;25.90;65.70;;;;;;2622234;52;20957;-71
2023/05/05 10:53:24;;;;;;;2.40;1.40;;;25.90;65.70;;;;;;2623422;52;21025;-71
2023/05/05 10:56:28;;;;;;;2.60;1.00;;;26.00;65.20;;;;;;2622876;52;20930;-71
2023/05/05 10:58:55;;;;;;;2.40;1.30;;;26.00;64.30;;;;;;2370445;53;20987;-72
2023/05/05 11:01:31;;;;;;;3.10;1.52;;;26.00;65.70;;;;;;2373913;53;21072;-71
2023/05/05 11:04:20;;;;;;;2.97;1.30;;;26.00;64.80;;;;;;2622115;52;20974;-70
2023/05/05 11:07:23;;;;;;;2.20;1.30;;;26.10;63.70;;;;;;2370666;53;21068;-69
2023/05/05 11:10:02;;;;;;;2.37;1.37;;;26.10;63.60;;;;;;2369530;53;20981;-71
2023/05/05 11:12:29;;;;;;;3.60;1.40;;;26.10;64.60;;;;;;2370648;53;21450;-71
2023/05/05 11:17:06;;;;;;;3.95;1.27;;;26.10;64.90;;;;;;2622973;52;21005;-71
2023/05/05 11:19:45;;;;;;;2.42;1.10;;;26.20;63.50;;;;;;2368842;53;20950;-71
2023/05/05 11:22:11;;;;;;;2.50;1.40;;;26.20;63.80;;;;;;2370304;53;20942;-70
2023/05/05 11:24:41;;;;;;;2.30;1.27;;;26.30;65.10;;;;;;2370093;53;21890;-71
2023/05/05 11:27:07;;;;;;;3.00;1.52;;;26.30;65.00;;;;;;2622534;52;21013;-71
2023/05/05 11:30:05;;;;;;;2.45;1.17;;;26.30;65.00;;;;;;2377245;53;20947;-72
2023/05/05 11:32:32;;;;;;;2.95;1.62;;;26.40;63.50;;;;;;2615468;52;20946;-71
2023/05/05 11:34:59;;;;;;;4.68;1.45;;;26.40;64.90;;;;;;2623062;52;20918;-71
2023/05/05 11:37:28;;;;;;;3.80;1.70;;;26.50;64.70;;;;;;2370531;53;20969;-72
2023/05/05 11:40:15;;;;;;;2.50;1.42;;;26.50;64.20;;;;;;2370211;53;22583;-70
2023/05/05 11:42:45;;;;;;;3.12;1.77;;;26.60;63.20;;;;;;2623060;52;21061;-69
2023/05/05 11:45:24;;;;;;;2.72;1.62;;;26.60;64.00;;;;;;2623198;52;20934;-70
2023/05/05 11:47:50;;;;;;;3.65;2.05;;;26.60;62.90;;;;;;2370603;52;22294;-70
2023/05/05 11:50:18;;;;;;;3.22;1.70;;;26.70;63.90;;;;;;2623018;52;20939;-69
2023/05/05 11:52:47;;;;;;;3.37;1.70;;;26.70;63.60;;;;;;2354817;53;21037;-70
2023/05/05 11:55:19;;;;;;;3.25;1.80;;;26.70;63.30;;;;;;2620075;52;20966;-71
2023/05/05 11:57:45;;;;;;;2.95;1.75;;;26.70;63.30;;;;;;2622605;52;21097;-70
2023/05/05 12:00:12;;;;;;;2.90;1.90;;;26.80;63.60;;;;;;2370928;53;21442;-71
2023/05/05 12:02:38;;;;;;;3.08;1.65;;;26.80;63.30;;;;;;2622905;52;20966;-71
2023/05/05 12:05:05;;;;;;;2.60;1.45;;;26.90;63.30;;;;;;2370858;53;20922;-71
2023/05/05 12:07:32;;;;;;;2.60;1.50;;;26.90;63.30;;;;;;2370524;53;21297;-70
2023/05/05 12:09:58;;;;;;;3.03;1.65;;;26.90;63.20;;;;;;2371054;53;21469;-70
2023/05/05 12:12:35;;;;;;;3.75;1.85;;;26.90;62.90;;;;;;2371245;53;20918;-70
2023/05/05 12:15:01;;;;;;;2.40;1.20;;;27.00;61.60;;;;;;2371191;53;20946;-70
2023/05/05 12:17:42;;;;;;;2.87;1.42;;;27.00;62.80;;;;;;2624456;52;21411;-69
2023/05/05 12:20:09;;;;;;;7.45;1.60;;;27.00;61.70;;;;;;2374929;53;21483;-70
2023/05/05 12:22:36;;;;;;;3.08;1.40;;;27.00;62.70;;;;;;2624348;52;21001;-70
2023/05/05 12:25:06;;;;;;;2.35;1.37;;;27.00;62.80;;;;;;2625221;52;21240;-70
2023/05/05 12:27:34;;;;;;;2.50;1.37;;;27.10;62.60;;;;;;2371742;53;21738;-70
2023/05/05 12:30:11;;;;;;;3.08;1.42;;;27.10;62.70;;;;;;2371623;53;20977;-70
2023/05/05 12:32:38;;;;;;;4.60;1.30;;;27.20;61.30;;;;;;2370631;53;20930;-71
2023/05/05 12:35:06;;;;;;;2.28;1.10;;;27.20;62.60;;;;;;2371480;53;20934;-70
2023/05/05 12:37:33;;;;;;;3.10;1.40;;;27.30;63.40;;;;;;2624062;52;20961;-71
2023/05/05 12:39:59;;;;;;;2.65;1.30;;;27.30;62.70;;;;;;2370765;53;20914;-70
2023/05/05 12:42:28;;;;;;;2.40;1.23;;;27.40;63.00;;;;;;2370797;53;20921;-69
2023/05/05 12:44:54;;;;;;;2.17;1.30;;;27.40;62.70;;;;;;2370396;53;20930;-69
2023/05/05 12:47:30;;;;;;;2.20;1.10;;;27.50;62.30;;;;;;2371142;53;21001;-70
2023/05/05 12:49:58;;;;;;;2.95;1.20;;;27.60;60.80;;;;;;2370335;53;20963;-69
2023/05/05 12:52:39;;;;;;;2.70;1.20;;;27.60;61.50;;;;;;2623683;52;20958;-69
2023/05/05 12:55:06;;;;;;;2.62;1.02;;;27.60;59.60;;;;;;2371485;53;20946;-72
2023/05/05 12:57:32;;;;;;;2.37;1.00;;;27.60;60.70;;;;;;2370887;53;22059;-72
2023/05/05 13:00:11;;;;;;;2.70;1.23;;;27.60;60.50;;;;;;2623423;52;20918;-72
2023/05/05 13:02:38;;;;;;;2.78;1.20;;;27.60;58.80;;;;;;2370226;53;20925;-71
2023/05/05 13:05:06;;;;;;;2.03;1.00;;;27.50;59.80;;;;;;2622844;52;21711;-72
2023/05/05 13:07:32;;;;;;;2.50;1.30;;;27.50;59.70;;;;;;2370642;53;20922;-71